createdAt,value
2018-06-05T00:01:03.382Z,7.77
2018-06-05T00:02:06.844Z,8.47
2018-06-05T00:03:10.307Z,7.03
2018-06-05T00:04:13.738Z,7.00
2018-06-05T00:05:20.093Z,7.17
2018-06-05T00:06:23.484Z,7.10
2018-06-05T00:07:26.908Z,7.33
2018-06-05T00:08:30.316Z,8.03
2018-06-05T00:09:33.702Z,7.87
2018-06-05T00:10:37.097Z,7.23
2018-06-05T00:11:40.504Z,7.17
2018-06-05T00:12:43.928Z,6.83
2018-06-05T00:13:47.320Z,7.47
2018-06-05T00:14:50.741Z,7.07
2018-06-05T00:15:54.145Z,7.13
2018-06-05T00:16:57.525Z,7.63
2018-06-05T00:18:00.979Z,6.70
2018-06-05T00:19:04.414Z,6.37
2018-06-05T00:20:07.825Z,6.87
2018-06-05T00:21:11.208Z,6.80
2018-06-05T00:22:14.626Z,7.63
2018-06-05T00:23:18.038Z,7.20
2018-06-05T00:24:21.430Z,7.17
2018-06-05T00:25:24.852Z,7.10
2018-06-05T00:26:28.256Z,6.53
2018-06-05T00:27:31.652Z,6.50
2018-06-05T00:28:35.119Z,6.97
2018-06-05T00:29:38.524Z,7.37
2018-06-05T00:30:41.921Z,7.43
2018-06-05T00:31:45.324Z,7.00
2018-06-05T00:32:48.724Z,6.67
2018-06-05T00:33:52.125Z,6.80
2018-06-05T00:34:55.542Z,7.30
2018-06-05T00:35:58.947Z,6.03
2018-06-05T00:37:02.343Z,7.33
2018-06-05T00:38:05.750Z,6.70
2018-06-05T00:39:09.164Z,6.90
2018-06-05T00:40:12.548Z,7.30
2018-06-05T00:41:15.970Z,7.67
2018-06-05T00:42:19.362Z,8.33
2018-06-05T00:43:22.764Z,8.30
2018-06-05T00:44:26.199Z,6.97
2018-06-05T00:45:29.588Z,7.77
2018-06-05T00:46:32.996Z,7.80
2018-06-05T00:47:36.447Z,8.23
2018-06-05T00:48:39.855Z,8.03
2018-06-05T00:49:43.270Z,7.80
2018-06-05T00:50:46.669Z,7.30
2018-06-05T00:52:01.267Z,8.50
2018-06-05T00:53:04.679Z,8.80
2018-06-05T00:54:08.059Z,9.10
2018-06-05T00:55:11.496Z,8.20
2018-06-05T00:56:14.886Z,8.47
2018-06-05T00:57:18.287Z,8.70
2018-06-05T00:58:21.699Z,8.80
2018-06-05T00:59:25.096Z,8.97
2018-06-05T01:00:28.525Z,8.87
2018-06-05T01:01:32.752Z,9.10
2018-06-05T01:02:36.138Z,8.37
2018-06-05T01:03:39.520Z,8.17
2018-06-05T01:04:42.905Z,8.10
2018-06-05T01:05:46.348Z,8.30
2018-06-05T01:06:49.740Z,8.70
2018-06-05T01:07:53.124Z,8.70
2018-06-05T01:08:56.520Z,8.93
2018-06-05T01:09:59.943Z,8.13
2018-06-05T01:11:03.403Z,8.40
2018-06-05T01:12:07.102Z,8.50
2018-06-05T01:13:10.512Z,8.80
2018-06-05T01:14:13.890Z,8.63
2018-06-05T01:15:17.280Z,8.03
2018-06-05T01:16:20.681Z,9.00
2018-06-05T01:17:24.116Z,8.40
2018-06-05T01:18:27.523Z,7.57
2018-06-05T01:19:30.938Z,7.80
2018-06-05T01:20:34.357Z,9.07
2018-06-05T01:21:37.776Z,8.33
2018-06-05T01:22:41.169Z,9.33
2018-06-05T01:23:44.583Z,8.70
2018-06-05T01:24:48.088Z,8.30
2018-06-05T01:25:51.491Z,8.70
2018-06-05T01:26:54.991Z,8.30
2018-06-05T01:27:58.399Z,8.50
2018-06-05T01:29:01.778Z,8.20
2018-06-05T01:30:05.204Z,7.93
2018-06-05T01:31:08.654Z,8.57
2018-06-05T01:32:12.046Z,8.23
2018-06-05T01:33:15.428Z,7.60
2018-06-05T01:34:18.809Z,7.70
2018-06-05T01:35:22.185Z,8.30
2018-06-05T01:36:25.586Z,9.10
2018-06-05T01:37:29.035Z,8.40
2018-06-05T01:38:32.440Z,8.23
2018-06-05T01:39:35.852Z,8.67
2018-06-05T01:40:39.252Z,7.67
2018-06-05T01:41:42.650Z,8.50
2018-06-05T01:42:46.050Z,8.37
2018-06-05T01:43:49.432Z,8.60
2018-06-05T01:44:52.821Z,7.50
2018-06-05T01:45:56.213Z,7.60
2018-06-05T01:46:59.604Z,7.50
2018-06-05T01:48:03.029Z,8.70
2018-06-05T01:49:06.456Z,8.33
2018-06-05T01:50:09.853Z,8.47
2018-06-05T01:51:13.236Z,7.60
2018-06-05T01:52:16.644Z,8.77
2018-06-05T01:53:20.042Z,8.67
2018-06-05T01:54:23.457Z,7.90
2018-06-05T01:55:26.840Z,8.70
2018-06-05T01:56:30.240Z,8.40
2018-06-05T01:57:33.628Z,8.53
2018-06-05T01:58:37.045Z,8.10
2018-06-05T01:59:40.466Z,8.63
2018-06-05T02:00:43.874Z,8.30
2018-06-05T02:01:47.291Z,8.30
2018-06-05T02:02:50.688Z,8.30
2018-06-05T02:03:54.106Z,7.63
2018-06-05T02:04:56.514Z,8.27
2018-06-05T02:05:59.912Z,7.50
2018-06-05T02:07:03.323Z,7.97
2018-06-05T02:08:06.776Z,8.30
2018-06-05T02:09:10.585Z,8.03
2018-06-05T02:10:13.980Z,8.20
2018-06-05T02:11:17.984Z,8.17
2018-06-05T02:12:21.385Z,8.50
2018-06-05T02:13:24.768Z,8.73
2018-06-05T02:14:28.202Z,8.33
2018-06-05T02:15:31.582Z,7.93
2018-06-05T02:16:34.995Z,7.90
2018-06-05T02:17:38.409Z,8.20
2018-06-05T02:18:41.830Z,8.20
2018-06-05T02:19:45.230Z,8.50
2018-06-05T02:20:48.636Z,8.33
2018-06-05T02:21:52.050Z,8.33
2018-06-05T02:22:55.437Z,8.60
2018-06-05T02:23:58.843Z,8.30
2018-06-05T02:25:02.252Z,8.00
2018-06-05T02:26:05.685Z,8.27
2018-06-05T02:27:09.100Z,8.33
2018-06-05T02:28:12.493Z,7.93
2018-06-05T02:29:15.876Z,7.67
2018-06-05T02:30:19.309Z,7.50
2018-06-05T02:31:22.686Z,8.20
2018-06-05T02:32:26.085Z,8.33
2018-06-05T02:33:29.477Z,7.97
2018-06-05T02:34:32.886Z,7.97
2018-06-05T02:35:36.319Z,7.73
2018-06-05T02:36:39.700Z,8.10
2018-06-05T02:37:43.122Z,8.10
2018-06-05T02:38:46.520Z,8.43
2018-06-05T02:39:49.902Z,7.47
2018-06-05T02:40:54.236Z,8.60
2018-06-05T02:41:57.663Z,8.50
2018-06-05T02:43:01.047Z,9.03
2018-06-05T02:44:04.500Z,8.40
2018-06-05T02:45:07.917Z,8.47
2018-06-05T02:46:11.364Z,8.10
2018-06-05T02:47:14.763Z,8.50
2018-06-05T02:48:18.162Z,8.30
2018-06-05T02:49:21.550Z,8.70
2018-06-05T02:50:24.948Z,8.07
2018-06-05T02:51:28.379Z,8.70
2018-06-05T02:52:31.778Z,8.20
2018-06-05T02:53:35.173Z,7.80
2018-06-05T02:54:38.597Z,8.57
2018-06-05T02:55:42.008Z,8.37
2018-06-05T02:56:45.440Z,8.33
2018-06-05T02:57:48.821Z,8.30
2018-06-05T02:58:52.227Z,8.87
2018-06-05T02:59:55.621Z,8.07
2018-06-05T03:00:59.023Z,8.60
2018-06-05T03:02:02.460Z,7.73
2018-06-05T03:03:07.343Z,7.33
2018-06-05T03:04:10.792Z,8.27
2018-06-05T03:05:14.162Z,8.43
2018-06-05T03:06:17.546Z,8.30
2018-06-05T03:07:20.957Z,8.00
2018-06-05T03:08:24.371Z,8.50
2018-06-05T03:09:27.761Z,8.40
2018-06-05T03:10:31.173Z,8.00
2018-06-05T03:11:34.575Z,8.90
2018-06-05T03:12:38.062Z,8.17
2018-06-05T03:13:41.430Z,8.40
2018-06-05T03:14:44.849Z,8.27
2018-06-05T03:15:48.268Z,7.87
2018-06-05T03:16:51.683Z,7.43
2018-06-05T03:17:55.102Z,8.43
2018-06-05T03:18:58.494Z,8.10
2018-06-05T03:20:01.880Z,9.00
2018-06-05T03:21:05.290Z,8.47
2018-06-05T03:22:08.671Z,8.33
2018-06-05T03:23:12.093Z,7.83
2018-06-05T03:24:15.491Z,8.60
2018-06-05T03:25:18.887Z,8.50
2018-06-05T03:26:22.288Z,8.90
2018-06-05T03:27:25.687Z,8.10
2018-06-05T03:28:29.112Z,8.47
2018-06-05T03:29:32.512Z,7.97
2018-06-05T03:30:35.930Z,8.30
2018-06-05T03:31:39.348Z,8.77
2018-06-05T03:32:42.776Z,8.80
2018-06-05T03:33:46.218Z,8.03
2018-06-05T03:34:49.609Z,7.73
2018-06-05T03:35:52.986Z,8.17
2018-06-05T03:36:56.372Z,8.60
2018-06-05T03:37:59.779Z,8.10
2018-06-05T03:39:03.293Z,8.70
2018-06-05T03:40:06.740Z,9.50
2018-06-05T03:41:10.157Z,8.50
2018-06-05T03:42:13.548Z,7.90
2018-06-05T03:43:16.979Z,8.23
2018-06-05T03:44:20.416Z,8.47
2018-06-05T03:45:23.790Z,8.77
2018-06-05T03:46:27.200Z,9.10
2018-06-05T03:47:30.590Z,8.40
2018-06-05T03:48:33.982Z,8.50
2018-06-05T03:49:41.858Z,8.30
2018-06-05T03:50:45.271Z,9.00
2018-06-05T03:51:48.676Z,8.93
2018-06-05T03:52:52.077Z,8.53
2018-06-05T03:53:55.462Z,8.40
2018-06-05T03:54:58.873Z,9.27
2018-06-05T03:56:02.277Z,9.07
2018-06-05T03:57:05.959Z,8.57
2018-06-05T03:58:09.328Z,8.80
2018-06-05T03:59:12.708Z,8.50
2018-06-05T04:00:16.132Z,8.13
2018-06-05T04:01:19.604Z,8.03
2018-06-05T04:02:22.981Z,8.50
2018-06-05T04:03:26.354Z,8.70
2018-06-05T04:04:29.772Z,8.50
2018-06-05T04:05:33.204Z,8.37
2018-06-05T04:06:36.613Z,8.00
2018-06-05T04:07:40.008Z,8.17
2018-06-05T04:08:43.420Z,8.40
2018-06-05T04:09:46.844Z,8.77
2018-06-05T04:10:50.233Z,8.77
2018-06-05T04:11:53.652Z,8.60
2018-06-05T04:12:57.053Z,9.10
2018-06-05T04:14:00.461Z,8.77
2018-06-05T04:15:03.919Z,8.70
2018-06-05T04:16:07.375Z,9.23
2018-06-05T04:17:10.773Z,9.27
2018-06-05T04:18:14.190Z,9.33
2018-06-05T04:19:17.623Z,9.00
2018-06-05T04:20:21.006Z,8.60
2018-06-05T04:21:24.452Z,9.73
2018-06-05T04:22:27.848Z,9.17
2018-06-05T04:23:31.279Z,8.63
2018-06-05T04:24:34.679Z,8.93
2018-06-05T04:25:38.062Z,8.40
2018-06-05T04:26:42.023Z,8.10
2018-06-05T04:27:45.420Z,9.00
2018-06-05T04:28:48.816Z,8.13
2018-06-05T04:29:52.204Z,9.63
2018-06-05T04:30:55.573Z,9.20
2018-06-05T04:31:58.974Z,8.37
2018-06-05T04:33:02.381Z,8.60
2018-06-05T04:34:05.768Z,8.50
2018-06-05T04:35:09.154Z,8.77
2018-06-05T04:36:12.598Z,8.23
2018-06-05T04:37:16.043Z,8.83
2018-06-05T04:38:19.460Z,8.53
2018-06-05T04:39:22.868Z,8.30
2018-06-05T04:40:26.260Z,8.13
2018-06-05T04:41:29.675Z,9.33
2018-06-05T04:42:33.102Z,9.60
2018-06-05T04:43:36.506Z,8.23
2018-06-05T04:44:39.910Z,9.97
2018-06-05T04:45:43.301Z,8.80
2018-06-05T04:46:46.728Z,8.90
2018-06-05T04:47:50.189Z,8.80
2018-06-05T04:48:53.570Z,8.20
2018-06-05T04:49:56.976Z,8.50
2018-06-05T04:51:00.385Z,8.40
2018-06-05T04:52:03.827Z,9.17
2018-06-05T04:53:07.250Z,9.53
2018-06-05T04:54:10.656Z,8.67
2018-06-05T04:55:14.076Z,8.40
2018-06-05T04:56:17.515Z,8.37
2018-06-05T04:57:20.927Z,8.60
2018-06-05T04:58:24.384Z,8.13
2018-06-05T04:59:27.761Z,9.37
2018-06-05T05:00:31.196Z,8.80
2018-06-05T05:01:34.637Z,8.63
2018-06-05T05:02:38.053Z,8.40
2018-06-05T05:03:41.494Z,8.73
2018-06-05T05:04:44.894Z,9.93
2018-06-05T05:05:48.284Z,8.50
2018-06-05T05:06:51.697Z,9.07
2018-06-05T05:07:55.158Z,8.90
2018-06-05T05:08:58.590Z,9.30
2018-06-05T05:10:01.963Z,8.93
2018-06-05T05:11:05.637Z,8.80
2018-06-05T05:12:09.022Z,8.73
2018-06-05T05:13:12.431Z,8.67
2018-06-05T05:14:15.865Z,8.40
2018-06-05T05:15:19.296Z,9.03
2018-06-05T05:16:22.831Z,9.20
2018-06-05T05:17:26.255Z,9.33
2018-06-05T05:18:29.670Z,8.50
2018-06-05T05:19:33.131Z,8.70
2018-06-05T05:20:36.524Z,8.27
2018-06-05T05:21:39.960Z,9.00
2018-06-05T05:22:43.389Z,8.30
2018-06-05T05:23:46.784Z,8.90
2018-06-05T05:24:50.206Z,8.23
2018-06-05T05:25:53.601Z,9.53
2018-06-05T05:26:56.978Z,9.00
2018-06-05T05:28:00.365Z,9.27
2018-06-05T05:29:03.829Z,8.70
2018-06-05T05:30:07.331Z,8.87
2018-06-05T05:31:10.742Z,9.27
2018-06-05T05:32:14.136Z,8.30
2018-06-05T05:33:17.517Z,8.73
2018-06-05T05:34:20.913Z,8.90
2018-06-05T05:35:24.351Z,9.43
2018-06-05T05:36:27.726Z,9.30
2018-06-05T05:37:31.137Z,10.77
2018-06-05T05:38:34.569Z,14.40
2018-06-05T05:39:38.011Z,11.37
2018-06-05T05:40:41.441Z,15.00
2018-06-05T05:41:44.848Z,15.37
2018-06-05T05:42:48.287Z,18.83
2018-06-05T05:43:51.692Z,18.83
2018-06-05T05:44:55.185Z,20.30
2018-06-05T05:45:58.618Z,20.37
2018-06-05T05:47:02.051Z,21.13
2018-06-05T05:48:05.502Z,20.90
2018-06-05T05:49:08.886Z,20.03
2018-06-05T05:50:12.261Z,20.60
2018-06-05T05:51:15.702Z,20.33
2018-06-05T05:52:19.092Z,21.80
2018-06-05T05:53:22.476Z,21.50
2018-06-05T05:54:25.872Z,22.90
2018-06-05T05:55:29.293Z,22.60
2018-06-05T05:56:32.713Z,19.77
2018-06-05T05:57:36.114Z,19.63
2018-06-05T05:58:39.516Z,20.63
2018-06-05T05:59:42.908Z,20.03
2018-06-05T06:00:46.325Z,20.13
2018-06-05T06:01:49.769Z,19.00
2018-06-05T06:02:53.164Z,19.30
2018-06-05T06:03:56.553Z,17.67
2018-06-05T06:04:59.956Z,18.50
2018-06-05T06:06:03.388Z,20.17
2018-06-05T06:07:06.818Z,19.43
2018-06-05T06:08:10.212Z,19.57
2018-06-05T06:09:13.609Z,19.63
2018-06-05T06:10:16.998Z,19.37
2018-06-05T06:11:20.411Z,19.13
2018-06-05T06:12:23.832Z,18.80
2018-06-05T06:13:27.256Z,16.67
2018-06-05T06:14:30.648Z,16.33
2018-06-05T06:15:34.149Z,17.03
2018-06-05T06:16:37.561Z,19.00
2018-06-05T06:17:40.958Z,15.47
2018-06-05T06:18:44.371Z,15.33
2018-06-05T06:19:47.779Z,16.50
2018-06-05T06:20:51.184Z,16.70
2018-06-05T06:21:54.562Z,15.33
2018-06-05T06:22:57.985Z,17.17
2018-06-05T06:24:01.422Z,15.97
2018-06-05T06:25:05.050Z,16.10
2018-06-05T06:26:08.441Z,15.93
2018-06-05T06:27:11.828Z,17.10
2018-06-05T06:28:15.245Z,16.90
2018-06-05T06:29:18.726Z,18.00
2018-06-05T06:30:22.129Z,16.30
2018-06-05T06:31:25.526Z,17.90
2018-06-05T06:32:28.911Z,17.50
2018-06-05T06:33:32.333Z,17.80
2018-06-05T06:34:35.749Z,15.37
2018-06-05T06:35:39.178Z,16.27
2018-06-05T06:36:42.576Z,20.17
2018-06-05T06:37:45.978Z,19.27
2018-06-05T06:38:49.396Z,21.97
2018-06-05T06:39:52.819Z,21.67
2018-06-05T06:40:56.208Z,23.00
2018-06-05T06:41:59.612Z,24.20
2018-06-05T06:43:03.011Z,22.77
2018-06-05T06:44:06.543Z,23.93
2018-06-05T06:45:09.943Z,24.33
2018-06-05T06:46:13.359Z,23.03
2018-06-05T06:47:16.765Z,24.83
2018-06-05T06:48:20.153Z,22.40
2018-06-05T06:49:23.572Z,22.87
2018-06-05T06:50:27.171Z,23.57
2018-06-05T06:51:30.568Z,22.77
2018-06-05T06:52:33.968Z,23.27
2018-06-05T06:53:37.353Z,23.67
2018-06-05T06:54:40.802Z,22.93
2018-06-05T06:55:44.223Z,22.30
2018-06-05T06:56:47.636Z,19.87
2018-06-05T06:57:51.020Z,22.83
2018-06-05T06:58:54.458Z,25.70
2018-06-05T06:59:57.901Z,22.77
2018-06-05T07:01:01.274Z,22.07
2018-06-05T07:02:04.725Z,22.97
2018-06-05T07:03:08.117Z,22.30
2018-06-05T07:04:11.519Z,21.00
2018-06-05T07:05:14.948Z,20.53
2018-06-05T07:06:18.336Z,20.50
2018-06-05T07:07:21.710Z,20.60
2018-06-05T07:08:25.104Z,19.20
2018-06-05T07:09:28.482Z,19.87
2018-06-05T07:10:31.900Z,20.83
2018-06-05T07:11:35.563Z,21.47
2018-06-05T07:12:38.957Z,20.60
2018-06-05T07:13:42.349Z,19.33
2018-06-05T07:14:45.787Z,19.13
2018-06-05T07:15:49.227Z,19.40
2018-06-05T07:16:52.639Z,18.90
2018-06-05T07:17:56.063Z,19.40
2018-06-05T07:18:59.449Z,17.07
2018-06-05T07:20:02.841Z,18.57
2018-06-05T07:21:06.287Z,18.20
2018-06-05T07:22:09.701Z,18.30
2018-06-05T07:23:13.108Z,18.33
2018-06-05T07:24:16.508Z,16.77
2018-06-05T07:25:19.902Z,16.93
2018-06-05T07:26:23.312Z,15.77
2018-06-05T07:27:26.700Z,17.37
2018-06-05T07:28:30.076Z,15.50
2018-06-05T07:29:33.479Z,16.47
2018-06-05T07:30:36.891Z,16.37
2018-06-05T07:31:40.339Z,16.20
2018-06-05T07:32:43.748Z,15.70
2018-06-05T07:33:47.134Z,17.20
2018-06-05T07:34:50.531Z,15.33
2018-06-05T07:35:53.968Z,16.40
2018-06-05T07:36:57.428Z,14.60
2018-06-05T07:38:00.840Z,15.87
2018-06-05T07:39:06.177Z,15.07
2018-06-05T07:40:09.870Z,14.33
2018-06-05T07:41:13.256Z,15.20
2018-06-05T07:42:16.671Z,15.93
2018-06-05T07:43:20.046Z,13.90
2018-06-05T07:44:23.456Z,14.83
2018-06-05T07:45:26.855Z,14.53
2018-06-05T07:46:30.264Z,14.97
2018-06-05T07:47:33.695Z,14.40
2018-06-05T07:48:37.089Z,14.13
2018-06-05T07:49:40.498Z,14.27
2018-06-05T07:50:43.890Z,13.70
2018-06-05T07:51:47.341Z,14.43
2018-06-05T07:52:51.389Z,13.57
2018-06-05T07:53:54.803Z,12.50
2018-06-05T07:54:58.197Z,15.10
2018-06-05T07:56:01.570Z,14.60
2018-06-05T07:57:05.031Z,15.03
2018-06-05T07:58:08.441Z,14.47
2018-06-05T07:59:11.832Z,14.17
2018-06-05T08:00:15.230Z,14.73
2018-06-05T08:01:18.610Z,14.80
2018-06-05T08:02:21.996Z,13.90
2018-06-05T08:03:25.412Z,14.43
2018-06-05T08:04:28.805Z,14.00
2018-06-05T08:05:32.197Z,13.97
2018-06-05T08:06:35.566Z,15.73
2018-06-05T08:07:38.953Z,14.10
2018-06-05T08:08:42.361Z,13.97
2018-06-05T08:09:45.771Z,15.17
2018-06-05T08:10:49.187Z,14.00
2018-06-05T08:11:52.581Z,16.70
2018-06-05T08:12:55.989Z,15.10
2018-06-05T08:13:59.397Z,17.13
2018-06-05T08:15:02.807Z,17.37
2018-06-05T08:16:06.441Z,16.30
2018-06-05T08:17:09.855Z,17.50
2018-06-05T08:18:13.257Z,17.27
2018-06-05T08:19:16.672Z,18.70
2018-06-05T08:20:20.092Z,18.67
2018-06-05T08:21:23.602Z,20.27
2018-06-05T08:23:03.257Z,20.27
2018-06-05T08:24:07.829Z,19.97
2018-06-05T08:25:11.301Z,20.67
2018-06-05T08:26:14.689Z,20.33
2018-06-05T08:27:18.147Z,21.00
2018-06-05T08:28:21.552Z,20.77
2018-06-05T08:29:25.072Z,21.20
2018-06-05T08:30:28.458Z,21.90
2018-06-05T08:31:31.853Z,21.77
2018-06-05T08:32:35.251Z,22.67
2018-06-05T08:33:38.647Z,21.33
2018-06-05T08:34:42.057Z,20.90
2018-06-05T08:35:45.467Z,26.10
2018-06-05T08:36:48.859Z,23.43
2018-06-05T08:37:52.240Z,22.10
2018-06-05T08:38:55.668Z,22.60
2018-06-05T08:39:59.106Z,20.47
2018-06-05T08:41:02.519Z,21.27
2018-06-05T08:42:06.031Z,21.47
2018-06-05T08:43:09.412Z,22.50
2018-06-05T08:44:12.797Z,27.17
2018-06-05T08:45:16.266Z,24.17
2018-06-05T08:46:19.638Z,24.23
2018-06-05T08:47:23.002Z,21.67
2018-06-05T08:48:26.365Z,21.50
2018-06-05T08:49:29.779Z,21.63
2018-06-05T08:50:33.212Z,21.00
2018-06-05T08:51:36.605Z,22.00
2018-06-05T08:52:40.000Z,22.70
2018-06-05T08:53:43.392Z,22.10
2018-06-05T08:54:46.785Z,20.57
2018-06-05T08:55:50.173Z,20.40
2018-06-05T08:56:53.552Z,20.67
2018-06-05T08:57:56.969Z,19.60
2018-06-05T08:59:00.378Z,19.30
2018-06-05T09:00:03.847Z,19.37
2018-06-05T09:01:07.261Z,21.20
2018-06-05T09:02:10.638Z,20.50
2018-06-05T09:03:14.041Z,19.17
2018-06-05T09:04:17.441Z,20.07
2018-06-05T09:05:20.836Z,19.80
2018-06-05T09:06:24.287Z,18.50
2018-06-05T09:07:27.688Z,17.87
2018-06-05T09:08:31.098Z,17.60
2018-06-05T09:09:34.516Z,18.10
2018-06-05T09:10:37.952Z,17.00
2018-06-05T09:11:41.351Z,18.80
2018-06-05T09:12:44.775Z,17.50
2018-06-05T09:13:48.190Z,17.10
2018-06-05T09:14:51.585Z,16.20
2018-06-05T09:15:55.025Z,18.03
2018-06-05T09:16:58.466Z,16.07
2018-06-05T09:18:01.893Z,16.97
2018-06-05T09:19:05.301Z,16.20
2018-06-05T09:20:08.734Z,16.03
2018-06-05T09:21:12.175Z,16.63
2018-06-05T09:22:15.592Z,16.33
2018-06-05T09:23:19.004Z,17.60
2018-06-05T09:24:22.437Z,16.83
2018-06-05T09:25:26.181Z,17.10
2018-06-05T09:26:29.893Z,16.73
2018-06-05T09:27:34.658Z,16.97
2018-06-05T09:28:38.171Z,16.00
2018-06-05T09:29:41.851Z,17.47
2018-06-05T09:30:45.468Z,15.73
2018-06-05T09:31:48.860Z,15.20
2018-06-05T09:32:52.301Z,16.57
2018-06-05T09:33:55.700Z,16.70
2018-06-05T09:34:59.105Z,15.30
2018-06-05T09:36:02.512Z,16.07
2018-06-05T09:37:05.920Z,15.23
2018-06-05T09:38:09.341Z,15.67
2018-06-05T09:39:12.742Z,17.00
2018-06-05T09:40:16.153Z,15.73
2018-06-05T09:41:19.649Z,17.40
2018-06-05T09:42:23.198Z,15.43
2018-06-05T09:43:26.609Z,15.93
2018-06-05T09:44:30.004Z,15.77
2018-06-05T09:45:33.405Z,16.07
2018-06-05T09:46:36.830Z,16.50
2018-06-05T09:47:40.236Z,15.70
2018-06-05T09:48:43.676Z,16.13
2018-06-05T09:49:47.074Z,15.73
2018-06-05T09:50:50.485Z,15.37
2018-06-05T09:51:53.914Z,17.10
2018-06-05T09:52:57.294Z,16.83
2018-06-05T09:54:00.710Z,17.47
2018-06-05T09:55:04.243Z,17.97
2018-06-05T09:56:07.644Z,17.60
2018-06-05T09:57:11.047Z,17.80
2018-06-05T09:58:14.514Z,17.27
2018-06-05T09:59:17.888Z,17.47
2018-06-05T10:00:26.579Z,16.97
2018-06-05T10:01:30.015Z,17.07
2018-06-05T10:02:33.632Z,16.70
2018-06-05T10:03:37.056Z,17.23
2018-06-05T10:04:40.457Z,16.60
2018-06-05T10:05:43.874Z,16.73
2018-06-05T10:06:47.358Z,16.47
2018-06-05T10:07:50.832Z,15.90
2018-06-05T10:08:54.261Z,16.80
2018-06-05T10:09:57.660Z,17.10
2018-06-05T10:11:01.061Z,17.37
2018-06-05T10:12:04.491Z,16.40
2018-06-05T10:13:07.952Z,15.80
2018-06-05T10:14:11.497Z,17.03
2018-06-05T10:15:14.850Z,17.03
2018-06-05T10:16:18.248Z,15.77
2018-06-05T10:17:21.675Z,16.10
2018-06-05T10:18:25.091Z,15.50
2018-06-05T10:19:28.497Z,15.90
2018-06-05T10:20:31.928Z,17.37
2018-06-05T10:21:35.332Z,16.90
2018-06-05T10:22:38.741Z,16.73
2018-06-05T10:23:42.153Z,16.00
2018-06-05T10:24:45.627Z,15.70
2018-06-05T10:25:49.059Z,15.93
2018-06-05T10:26:52.462Z,16.90
2018-06-05T10:27:55.902Z,16.40
2018-06-05T10:28:59.302Z,16.57
2018-06-05T10:30:02.744Z,16.10
2018-06-05T10:31:06.167Z,15.33
2018-06-05T10:32:09.617Z,15.70
2018-06-05T10:33:13.184Z,15.93
2018-06-05T10:34:16.604Z,16.07
2018-06-05T10:35:20.014Z,16.03
2018-06-05T10:36:23.414Z,15.30
2018-06-05T10:37:26.817Z,15.23
2018-06-05T10:38:30.241Z,17.17
2018-06-05T10:39:33.677Z,15.67
2018-06-05T10:40:37.163Z,15.77
2018-06-05T10:41:40.576Z,16.13
2018-06-05T10:42:44.001Z,15.50
2018-06-05T10:43:47.413Z,15.27
2018-06-05T10:44:50.858Z,14.60
2018-06-05T10:45:54.266Z,16.13
2018-06-05T10:46:57.795Z,15.47
2018-06-05T10:48:01.190Z,15.47
2018-06-05T10:49:04.611Z,17.77
2018-06-05T10:50:08.029Z,16.23
2018-06-05T10:51:11.443Z,18.07
2018-06-05T10:52:14.845Z,16.97
2018-06-05T10:53:18.248Z,16.97
2018-06-05T10:54:21.640Z,16.93
2018-06-05T10:55:25.063Z,16.87
2018-06-05T10:56:28.492Z,16.83
2018-06-05T10:57:31.928Z,17.10
2018-06-05T10:58:35.325Z,18.10
2018-06-05T10:59:38.709Z,18.30
2018-06-05T11:00:42.102Z,17.60
2018-06-05T11:01:45.517Z,17.80
2018-06-05T11:02:48.944Z,16.53
2018-06-05T11:03:52.366Z,16.50
2018-06-05T11:04:55.775Z,18.03
2018-06-05T11:05:59.196Z,17.67
2018-06-05T11:07:02.575Z,18.10
2018-06-05T11:08:06.020Z,18.03
2018-06-05T11:09:09.425Z,18.87
2018-06-05T11:10:12.854Z,17.10
2018-06-05T11:11:16.404Z,18.40
2018-06-05T11:12:19.809Z,17.33
2018-06-05T11:13:23.241Z,18.07
2018-06-05T11:14:26.663Z,18.20
2018-06-05T11:15:30.063Z,18.63
2018-06-05T11:16:33.487Z,18.37
2018-06-05T11:17:36.877Z,19.30
2018-06-05T11:18:40.299Z,18.20
2018-06-05T11:19:43.713Z,19.80
2018-06-05T11:20:47.112Z,19.07
2018-06-05T11:21:50.506Z,19.67
2018-06-05T11:22:53.904Z,19.27
2018-06-05T11:23:57.288Z,19.47
2018-06-05T11:25:00.676Z,18.60
2018-06-05T11:26:04.125Z,20.20
2018-06-05T11:27:07.541Z,19.60
2018-06-05T11:28:10.943Z,19.10
2018-06-05T11:29:14.322Z,18.77
2018-06-05T11:30:17.694Z,19.40
2018-06-05T11:31:21.099Z,19.23
2018-06-05T11:32:24.506Z,18.80
2018-06-05T11:33:27.921Z,18.63
2018-06-05T11:34:31.326Z,18.67
2018-06-05T11:35:34.715Z,18.33
2018-06-05T11:36:38.105Z,18.77
2018-06-05T11:37:41.537Z,19.90
2018-06-05T11:38:44.941Z,19.10
2018-06-05T11:39:48.403Z,20.47
2018-06-05T11:40:51.808Z,17.70
2018-06-05T11:41:55.280Z,18.83
2018-06-05T11:42:58.686Z,20.00
2018-06-05T11:44:02.111Z,18.50
2018-06-05T11:45:06.077Z,20.23
2018-06-05T11:46:09.485Z,18.87
2018-06-05T11:47:12.878Z,19.40
2018-06-05T11:48:16.254Z,19.20
2018-06-05T11:49:19.736Z,17.13
2018-06-05T11:50:23.191Z,20.07
2018-06-05T11:51:26.637Z,18.93
2018-06-05T11:52:30.042Z,18.27
2018-06-05T11:53:33.439Z,18.77
2018-06-05T11:54:36.886Z,17.80
2018-06-05T11:55:40.314Z,20.20
2018-06-05T11:56:43.729Z,18.23
2018-06-05T11:57:47.152Z,19.70
2018-06-05T11:58:50.610Z,18.40
2018-06-05T11:59:53.994Z,17.10
2018-06-05T12:00:57.401Z,20.40
2018-06-05T12:02:00.809Z,19.07
2018-06-05T12:03:04.305Z,18.90
2018-06-05T12:04:07.778Z,18.10
2018-06-05T12:05:11.183Z,18.30
2018-06-05T12:06:14.595Z,18.50
2018-06-05T12:07:17.977Z,18.07
2018-06-05T12:08:21.388Z,18.07
2018-06-05T12:09:24.807Z,18.43
2018-06-05T12:10:28.231Z,17.10
2018-06-05T12:11:31.625Z,18.10
2018-06-05T12:12:35.027Z,16.73
2018-06-05T12:13:38.458Z,17.17
2018-06-05T12:14:41.864Z,17.23
2018-06-05T12:15:45.256Z,17.90
2018-06-05T12:16:48.650Z,17.60
2018-06-05T12:17:52.129Z,18.80
2018-06-05T12:18:55.504Z,17.23
2018-06-05T12:19:58.928Z,17.60
2018-06-05T12:21:02.339Z,18.07
2018-06-05T12:22:05.758Z,18.13
2018-06-05T12:23:09.156Z,17.13
2018-06-05T12:24:12.626Z,17.13
2018-06-05T12:25:16.058Z,17.97
2018-06-05T12:26:19.473Z,17.17
2018-06-05T12:27:22.895Z,17.77
2018-06-05T12:28:26.296Z,16.03
2018-06-05T12:29:29.738Z,17.30
2018-06-05T12:30:33.139Z,17.00
2018-06-05T12:31:36.599Z,18.80
2018-06-05T12:32:40.001Z,18.90
2018-06-05T12:33:43.385Z,17.50
2018-06-05T12:34:46.792Z,17.60
2018-06-05T12:35:50.169Z,18.20
2018-06-05T12:36:53.601Z,18.43
2018-06-05T12:37:56.977Z,17.90
2018-06-05T12:39:00.377Z,18.80
2018-06-05T12:40:03.868Z,17.70
2018-06-05T12:41:07.254Z,16.70
2018-06-05T12:42:10.653Z,17.13
2018-06-05T12:43:14.087Z,18.33
2018-06-05T12:44:17.487Z,17.73
2018-06-05T12:45:20.985Z,18.10
2018-06-05T12:46:24.553Z,17.43
2018-06-05T12:47:27.957Z,18.07
2018-06-05T12:48:31.379Z,18.00
2018-06-05T12:49:34.754Z,17.80
2018-06-05T12:50:38.186Z,16.77
2018-06-05T12:51:41.601Z,18.03
2018-06-05T12:52:44.994Z,17.63
2018-06-05T12:53:48.409Z,17.37
2018-06-05T12:54:51.956Z,17.90
2018-06-05T12:55:55.426Z,18.60
2018-06-05T12:56:58.853Z,18.40
2018-06-05T12:58:02.298Z,19.27
2018-06-05T12:59:05.700Z,17.73
2018-06-05T13:00:09.110Z,16.83
2018-06-05T13:01:12.587Z,17.30
2018-06-05T13:02:16.007Z,18.30
2018-06-05T13:03:19.455Z,17.60
2018-06-05T13:04:22.833Z,16.97
2018-06-05T13:05:26.817Z,16.53
2018-06-05T13:06:30.250Z,17.17
2018-06-05T13:07:33.691Z,17.80
2018-06-05T13:08:37.086Z,17.67
2018-06-05T13:09:40.512Z,17.83
2018-06-05T13:10:43.890Z,16.90
2018-06-05T13:11:47.315Z,17.93
2018-06-05T13:12:50.694Z,17.50
2018-06-05T13:13:54.107Z,17.80
2018-06-05T13:14:57.496Z,17.60
2018-06-05T13:16:00.893Z,17.37
2018-06-05T13:17:04.362Z,17.00
2018-06-05T13:18:07.760Z,16.67
2018-06-05T13:19:11.164Z,16.80
2018-06-05T13:20:14.578Z,19.33
2018-06-05T13:21:17.980Z,18.00
2018-06-05T13:22:21.382Z,17.30
2018-06-05T13:23:24.797Z,17.13
2018-06-05T13:24:28.177Z,17.63
2018-06-05T13:25:31.570Z,16.83
2018-06-05T13:26:34.960Z,17.63
2018-06-05T13:27:38.400Z,17.33
2018-06-05T13:28:41.835Z,17.13
2018-06-05T13:29:45.231Z,16.87
2018-06-05T13:30:48.662Z,17.57
2018-06-05T13:31:52.057Z,17.77
2018-06-05T13:32:55.460Z,17.43
2018-06-05T13:33:58.858Z,17.50
2018-06-05T13:35:02.267Z,15.63
2018-06-05T13:36:06.007Z,17.67
2018-06-05T13:37:09.382Z,16.43
2018-06-05T13:38:12.856Z,18.13
2018-06-05T13:39:16.230Z,18.33
2018-06-05T13:40:19.645Z,17.80
2018-06-05T13:41:23.037Z,17.23
2018-06-05T13:42:26.468Z,16.70
2018-06-05T13:43:29.884Z,17.60
2018-06-05T13:44:33.305Z,17.63
2018-06-05T13:45:36.720Z,18.30
2018-06-05T13:46:40.102Z,17.50
2018-06-05T13:47:43.516Z,16.27
2018-06-05T13:48:46.935Z,17.33